createdAt,value
2019-03-15T00:02:32.308Z,21.36
2019-03-15T00:07:37.088Z,21.36
2019-03-15T00:13:12.403Z,21.27
2019-03-15T00:18:16.995Z,21.34
2019-03-15T00:23:21.276Z,21.29
2019-03-15T00:28:25.640Z,21.25
2019-03-15T00:33:29.980Z,21.20
2019-03-15T00:38:34.224Z,21.16
2019-03-15T00:43:38.487Z,21.16
2019-03-15T00:48:42.584Z,21.08
2019-03-15T00:53:47.073Z,21.05
2019-03-15T00:58:51.343Z,21.02
2019-03-15T01:03:55.389Z,20.99
2019-03-15T01:08:59.507Z,20.99
2019-03-15T01:14:03.851Z,20.92
2019-03-15T01:19:08.086Z,20.90
2019-03-15T01:24:12.177Z,20.77
2019-03-15T01:29:16.241Z,20.82
2019-03-15T01:34:20.281Z,20.82
2019-03-15T01:39:24.453Z,20.77
2019-03-15T01:44:28.710Z,20.78
2019-03-15T01:49:33.552Z,20.75
2019-03-15T01:54:37.925Z,20.73
2019-03-15T01:59:42.112Z,20.63
2019-03-15T02:04:46.144Z,20.67
2019-03-15T02:09:50.213Z,20.66
2019-03-15T02:14:54.264Z,20.64
2019-03-15T02:19:58.434Z,20.64
2019-03-15T02:25:02.929Z,20.58
2019-03-15T02:30:07.089Z,20.53
2019-03-15T02:35:11.380Z,20.51
2019-03-15T02:40:15.569Z,20.51
2019-03-15T02:45:19.750Z,20.46
2019-03-15T02:50:23.951Z,20.45
2019-03-15T02:55:28.161Z,20.43
2019-03-15T03:00:32.288Z,20.43
2019-03-15T03:05:36.457Z,20.38
2019-03-15T03:10:40.575Z,20.38
2019-03-15T03:15:45.010Z,20.32
2019-03-15T03:20:49.209Z,20.27
2019-03-15T03:25:53.525Z,20.26
2019-03-15T03:30:57.794Z,20.26
2019-03-15T03:36:01.900Z,20.21
2019-03-15T03:41:06.003Z,20.17
2019-03-15T03:46:10.141Z,20.15
2019-03-15T03:51:14.359Z,20.14
2019-03-15T03:56:18.916Z,20.13
2019-03-15T04:01:23.547Z,20.13
2019-03-15T04:06:27.846Z,20.12
2019-03-15T04:11:31.853Z,20.07
2019-03-15T04:16:36.080Z,20.04
2019-03-15T04:21:40.176Z,20.04
2019-03-15T04:26:44.273Z,20.02
2019-03-15T04:31:48.411Z,20.00
2019-03-15T04:36:52.544Z,19.98
2019-03-15T04:41:57.084Z,20.02
2019-03-15T04:47:01.450Z,19.90
2019-03-15T04:52:06.152Z,19.99
2019-03-15T04:57:13.368Z,19.86
2019-03-15T05:02:17.686Z,19.86
2019-03-15T05:07:22.063Z,19.87
2019-03-15T05:12:26.143Z,19.87
2019-03-15T05:17:30.345Z,19.96
2019-03-15T05:22:34.485Z,19.87
2019-03-15T05:27:38.781Z,19.96
2019-03-15T05:32:43.012Z,19.83
2019-03-15T05:37:47.249Z,19.88
2019-03-15T05:42:51.458Z,19.78
2019-03-15T05:47:55.603Z,19.76
2019-03-15T05:52:59.906Z,19.82
2019-03-15T05:58:04.225Z,19.80
2019-03-15T06:03:08.420Z,19.73
2019-03-15T06:08:12.563Z,19.76
2019-03-15T06:13:16.895Z,19.76
2019-03-15T06:18:21.297Z,19.74
2019-03-15T06:23:25.591Z,19.74
2019-03-15T06:28:30.073Z,19.78
2019-03-15T06:33:34.476Z,19.76
2019-03-15T06:38:38.823Z,19.76
2019-03-15T06:43:43.116Z,19.72
2019-03-15T06:48:47.464Z,19.72
2019-03-15T06:53:51.746Z,19.73
2019-03-15T06:58:55.992Z,19.73
2019-03-15T07:04:00.259Z,19.74
2019-03-15T07:09:05.384Z,19.75
2019-03-15T07:14:09.544Z,19.75
2019-03-15T07:19:25.491Z,19.79
2019-03-15T07:24:25.137Z,19.79
2019-03-15T07:29:25.771Z,19.82
2019-03-15T07:34:30.000Z,19.82
2019-03-15T07:39:34.192Z,19.76
2019-03-15T07:44:38.864Z,19.69
2019-03-15T07:49:43.176Z,19.69
2019-03-15T07:54:47.473Z,19.62
2019-03-15T07:59:51.694Z,19.69
2019-03-15T08:04:56.033Z,19.70
2019-03-15T08:10:02.321Z,19.69
2019-03-15T08:15:06.894Z,19.69
2019-03-15T08:20:11.367Z,20.50
2019-03-15T08:25:15.740Z,20.90
2019-03-15T08:30:19.927Z,21.08
2019-03-15T08:35:24.666Z,20.88
2019-03-15T08:40:28.975Z,20.65
2019-03-15T08:45:33.055Z,20.63
2019-03-15T08:50:37.081Z,20.63
2019-03-15T08:55:41.196Z,20.50
2019-03-15T09:00:45.224Z,17.84
2019-03-15T09:05:49.952Z,17.56
2019-03-15T09:10:54.255Z,17.39
2019-03-15T09:15:58.354Z,17.80
2019-03-15T09:21:02.373Z,19.65
2019-03-15T09:26:40.740Z,19.65
2019-03-15T09:31:48.121Z,20.45
2019-03-15T09:36:50.686Z,20.58
2019-03-15T09:41:54.776Z,20.55
2019-03-15T09:47:02.262Z,20.43
2019-03-15T09:52:04.707Z,20.50
2019-03-15T09:57:08.777Z,20.39
2019-03-15T10:02:12.950Z,20.39
2019-03-15T10:07:17.100Z,20.64
2019-03-15T10:12:21.299Z,20.64
2019-03-15T10:17:25.372Z,20.66
2019-03-15T10:22:29.377Z,20.66
2019-03-15T10:27:33.511Z,20.50
2019-03-15T10:32:37.626Z,20.51
2019-03-15T10:37:41.704Z,20.51
2019-03-15T10:42:45.804Z,20.47
2019-03-15T10:47:50.407Z,20.47
2019-03-15T10:52:54.563Z,20.35
2019-03-15T10:57:58.658Z,20.35
2019-03-15T11:03:02.775Z,20.51
2019-03-15T11:08:06.898Z,20.51
2019-03-15T11:13:10.909Z,20.75
2019-03-15T11:18:14.991Z,20.72
2019-03-15T11:23:19.006Z,20.77
2019-03-15T11:28:23.021Z,20.76
2019-03-15T11:33:27.028Z,20.72
2019-03-15T11:38:46.916Z,20.79
2019-03-15T11:43:51.106Z,20.71
2019-03-15T11:48:55.389Z,20.59
2019-03-15T11:53:59.374Z,20.69
2019-03-15T11:59:03.712Z,20.69
2019-03-15T12:04:07.836Z,20.47
2019-03-15T12:09:11.853Z,20.41
2019-03-15T12:14:15.901Z,20.41
2019-03-15T12:19:19.937Z,20.46
2019-03-15T12:24:24.040Z,20.43
2019-03-15T12:29:28.103Z,20.44
2019-03-15T12:34:32.413Z,20.46
2019-03-15T12:39:36.440Z,20.48
2019-03-15T12:44:40.472Z,20.51
2019-03-15T12:49:44.503Z,20.53
2019-03-15T12:54:48.541Z,20.59
2019-03-15T12:59:52.546Z,20.63
2019-03-15T13:04:56.635Z,20.66
2019-03-15T13:10:00.775Z,20.70
2019-03-15T13:15:05.465Z,20.70
2019-03-15T13:20:10.587Z,20.74
2019-03-15T13:25:14.658Z,20.73
2019-03-15T13:30:18.889Z,20.79
2019-03-15T13:35:22.913Z,20.79
2019-03-15T13:40:27.006Z,20.84
2019-03-15T13:45:31.439Z,20.83
2019-03-15T13:50:35.456Z,20.88
2019-03-15T13:55:39.563Z,20.77
2019-03-15T14:00:43.614Z,20.87
2019-03-15T14:05:47.641Z,20.87
2019-03-15T14:10:51.661Z,20.89
2019-03-15T14:15:55.753Z,20.89
2019-03-15T14:20:59.838Z,20.88
2019-03-15T14:26:03.999Z,20.89
2019-03-15T14:31:08.176Z,20.91
2019-03-15T14:36:12.625Z,20.91
2019-03-15T14:41:17.016Z,20.93
2019-03-15T14:46:21.630Z,21.48
2019-03-15T14:51:25.744Z,21.48
2019-03-15T14:56:29.780Z,21.79
2019-03-15T15:01:33.957Z,21.95
2019-03-15T15:06:38.094Z,21.93
2019-03-15T15:11:42.157Z,21.93
2019-03-15T15:16:46.300Z,21.99
2019-03-15T15:21:52.817Z,21.99
2019-03-15T15:26:56.623Z,22.14
2019-03-15T15:32:00.669Z,22.14
2019-03-15T15:37:04.887Z,22.10
2019-03-15T15:42:09.087Z,22.20
2019-03-15T15:47:13.115Z,22.20
2019-03-15T15:52:17.262Z,22.36
2019-03-15T15:57:21.367Z,22.30
2019-03-15T16:02:25.551Z,22.30
2019-03-15T16:07:29.850Z,22.31
2019-03-15T16:12:34.334Z,22.31
2019-03-15T16:17:38.438Z,22.35
2019-03-15T16:22:42.675Z,22.40
2019-03-15T16:27:46.854Z,22.47
2019-03-15T16:32:50.987Z,22.47
2019-03-15T16:37:55.102Z,22.53
2019-03-15T16:42:59.260Z,22.53
2019-03-15T16:48:03.425Z,22.53
2019-03-15T16:53:07.527Z,22.53
2019-03-15T16:58:11.703Z,22.59
2019-03-15T17:03:15.836Z,22.69
2019-03-15T17:08:19.858Z,22.53
2019-03-15T17:13:24.081Z,22.47
2019-03-15T17:18:28.141Z,22.35
2019-03-15T17:23:32.193Z,22.51
2019-03-15T17:28:36.279Z,22.78
2019-03-15T17:33:51.709Z,22.69
2019-03-15T17:38:55.805Z,22.73
2019-03-15T17:43:59.873Z,22.62
2019-03-15T17:49:05.879Z,22.63
2019-03-15T17:54:13.977Z,22.77
2019-03-15T17:59:32.879Z,22.77
2019-03-15T18:10:13.078Z,22.84
2019-03-15T18:15:17.497Z,22.63
2019-03-15T18:20:22.685Z,22.60
2019-03-15T18:25:29.372Z,22.40
2019-03-15T18:30:36.128Z,22.40
2019-03-15T18:35:40.747Z,22.37
2019-03-15T18:40:45.112Z,22.54
2019-03-15T18:45:49.458Z,22.52
2019-03-15T18:50:53.886Z,22.51
2019-03-15T18:55:58.223Z,22.51
2019-03-15T19:01:06.731Z,22.66
2019-03-15T19:11:30.496Z,22.62
2019-03-15T19:16:35.847Z,22.66
2019-03-15T19:21:42.145Z,22.57
2019-03-15T19:26:52.814Z,22.44
2019-03-15T19:37:21.912Z,22.58
2019-03-15T19:42:27.563Z,22.64
2019-03-15T19:47:34.157Z,22.61
2019-03-15T19:52:42.310Z,22.61
2019-03-15T19:58:22.565Z,22.77
2019-03-15T20:21:39.890Z,22.49
2019-03-15T20:26:50.879Z,22.33
2019-03-15T20:43:50.900Z,22.11
2019-03-15T20:48:55.525Z,22.11
2019-03-15T20:54:00.015Z,22.01
2019-03-15T20:59:04.304Z,22.01
2019-03-15T21:04:08.720Z,22.03
2019-03-15T21:09:13.222Z,21.95
2019-03-15T21:14:17.682Z,21.89
2019-03-15T21:19:22.089Z,21.74
2019-03-15T21:24:26.318Z,21.79
2019-03-15T21:29:30.511Z,21.70
2019-03-15T21:34:34.627Z,21.70
2019-03-15T21:39:39.068Z,21.74
2019-03-15T21:44:43.363Z,21.74
2019-03-15T21:49:47.651Z,21.70
2019-03-15T21:54:52.137Z,21.68
2019-03-15T21:59:56.393Z,21.67
2019-03-15T22:05:00.894Z,21.64
2019-03-15T22:10:05.624Z,21.62
2019-03-15T22:15:10.008Z,21.65
2019-03-15T22:20:14.693Z,21.61
2019-03-15T22:25:19.007Z,21.59
2019-03-15T22:30:23.318Z,21.55
2019-03-15T22:35:27.762Z,21.59
2019-03-15T22:40:32.033Z,21.56
2019-03-15T22:45:36.247Z,21.52
2019-03-15T22:50:40.442Z,21.52
2019-03-15T22:55:44.775Z,21.43
2019-03-15T23:00:49.959Z,21.52
2019-03-15T23:05:54.178Z,21.46
2019-03-15T23:10:58.533Z,21.46
2019-03-15T23:16:02.910Z,21.43
2019-03-15T23:21:07.350Z,21.46
2019-03-15T23:26:11.738Z,21.38
2019-03-15T23:31:16.101Z,21.43
2019-03-15T23:36:20.423Z,21.43
2019-03-15T23:41:24.789Z,21.44
2019-03-15T23:46:29.091Z,21.41
2019-03-15T23:51:33.452Z,21.42
2019-03-15T23:56:37.925Z,21.41
